sensor_id;sensor_type;location;lat;lon;timestamp;P1;durP1;ratioP1;P2;durP2;ratioP2
82787;SDS011;72529;51.786;4.662;2023-12-07T00:01:33;24.42;;;24.26;;
82787;SDS011;72529;51.786;4.662;2023-12-07T00:04:00;24.93;;;24.81;;
82787;SDS011;72529;51.786;4.662;2023-12-07T00:06:25;24.87;;;24.68;;
82787;SDS011;72529;51.786;4.662;2023-12-07T00:08:51;24.92;;;24.82;;
82787;SDS011;72529;51.786;4.662;2023-12-07T00:11:17;25.19;;;25.16;;
82787;SDS011;72529;51.786;4.662;2023-12-07T00:13:42;25.02;;;24.92;;
82787;SDS011;72529;51.786;4.662;2023-12-07T00:16:08;25.02;;;24.87;;
82787;SDS011;72529;51.786;4.662;2023-12-07T00:18:33;26.47;;;26.45;;
82787;SDS011;72529;51.786;4.662;2023-12-07T00:20:59;25.18;;;25.16;;
82787;SDS011;72529;51.786;4.662;2023-12-07T00:23:24;26.08;;;25.90;;
82787;SDS011;72529;51.786;4.662;2023-12-07T00:25:50;25.76;;;25.64;;
82787;SDS011;72529;51.786;4.662;2023-12-07T00:28:15;26.45;;;26.39;;
82787;SDS011;72529;51.786;4.662;2023-12-07T00:30:41;26.78;;;26.74;;
82787;SDS011;72529;51.786;4.662;2023-12-07T00:33:07;25.84;;;25.70;;
82787;SDS011;72529;51.786;4.662;2023-12-07T00:35:34;25.03;;;24.91;;
82787;SDS011;72529;51.786;4.662;2023-12-07T00:38:00;27.24;;;27.19;;
82787;SDS011;72529;51.786;4.662;2023-12-07T00:40:25;27.30;;;27.23;;
82787;SDS011;72529;51.786;4.662;2023-12-07T00:42:51;27.19;;;27.10;;
82787;SDS011;72529;51.786;4.662;2023-12-07T00:45:17;27.04;;;26.94;;
82787;SDS011;72529;51.786;4.662;2023-12-07T00:47:42;28.27;;;28.10;;
82787;SDS011;72529;51.786;4.662;2023-12-07T00:50:08;27.92;;;27.75;;
82787;SDS011;72529;51.786;4.662;2023-12-07T00:52:34;26.98;;;26.85;;
82787;SDS011;72529;51.786;4.662;2023-12-07T00:54:59;27.26;;;27.06;;
82787;SDS011;72529;51.786;4.662;2023-12-07T00:57:25;27.35;;;27.18;;
82787;SDS011;72529;51.786;4.662;2023-12-07T00:59:51;26.19;;;26.02;;
82787;SDS011;72529;51.786;4.662;2023-12-07T01:02:17;26.49;;;26.30;;
82787;SDS011;72529;51.786;4.662;2023-12-07T01:04:42;25.56;;;25.43;;
82787;SDS011;72529;51.786;4.662;2023-12-07T01:07:07;25.74;;;25.59;;
82787;SDS011;72529;51.786;4.662;2023-12-07T01:09:33;25.08;;;25.03;;
82787;SDS011;72529;51.786;4.662;2023-12-07T01:11:58;25.59;;;25.43;;
82787;SDS011;72529;51.786;4.662;2023-12-07T01:14:24;25.33;;;25.21;;
82787;SDS011;72529;51.786;4.662;2023-12-07T01:16:50;25.31;;;25.19;;
82787;SDS011;72529;51.786;4.662;2023-12-07T01:19:15;24.86;;;24.76;;
82787;SDS011;72529;51.786;4.662;2023-12-07T01:21:41;25.26;;;25.16;;
82787;SDS011;72529;51.786;4.662;2023-12-07T01:24:07;26.02;;;25.97;;
82787;SDS011;72529;51.786;4.662;2023-12-07T01:26:32;25.36;;;25.27;;
82787;SDS011;72529;51.786;4.662;2023-12-07T01:28:58;25.64;;;25.49;;
82787;SDS011;72529;51.786;4.662;2023-12-07T01:31:24;24.09;;;23.99;;
82787;SDS011;72529;51.786;4.662;2023-12-07T01:33:49;24.38;;;24.24;;
82787;SDS011;72529;51.786;4.662;2023-12-07T01:36:14;24.77;;;24.65;;
82787;SDS011;72529;51.786;4.662;2023-12-07T01:38:40;23.86;;;23.61;;
82787;SDS011;72529;51.786;4.662;2023-12-07T01:41:05;24.41;;;24.24;;
82787;SDS011;72529;51.786;4.662;2023-12-07T01:43:32;23.64;;;23.60;;
82787;SDS011;72529;51.786;4.662;2023-12-07T01:45:57;23.59;;;23.51;;
82787;SDS011;72529;51.786;4.662;2023-12-07T01:48:24;22.35;;;22.33;;
82787;SDS011;72529;51.786;4.662;2023-12-07T01:50:52;22.58;;;22.54;;
82787;SDS011;72529;51.786;4.662;2023-12-07T01:53:21;22.86;;;22.76;;
82787;SDS011;72529;51.786;4.662;2023-12-07T01:55:48;22.35;;;22.25;;
82787;SDS011;72529;51.786;4.662;2023-12-07T01:58:16;21.87;;;21.78;;
82787;SDS011;72529;51.786;4.662;2023-12-07T02:00:43;21.76;;;21.65;;
82787;SDS011;72529;51.786;4.662;2023-12-07T02:03:10;20.79;;;20.73;;
82787;SDS011;72529;51.786;4.662;2023-12-07T02:05:36;21.42;;;21.41;;
82787;SDS011;72529;51.786;4.662;2023-12-07T02:08:07;21.69;;;21.66;;
82787;SDS011;72529;51.786;4.662;2023-12-07T02:10:32;21.96;;;21.86;;
82787;SDS011;72529;51.786;4.662;2023-12-07T02:12:58;20.94;;;20.81;;
82787;SDS011;72529;51.786;4.662;2023-12-07T02:15:23;19.37;;;19.35;;
82787;SDS011;72529;51.786;4.662;2023-12-07T02:17:51;18.15;;;18.14;;
82787;SDS011;72529;51.786;4.662;2023-12-07T02:20:30;17.23;;;17.21;;
82787;SDS011;72529;51.786;4.662;2023-12-07T02:23:07;17.46;;;17.42;;
82787;SDS011;72529;51.786;4.662;2023-12-07T02:25:40;17.32;;;17.29;;
82787;SDS011;72529;51.786;4.662;2023-12-07T02:28:18;17.12;;;17.02;;
82787;SDS011;72529;51.786;4.662;2023-12-07T02:30:43;16.12;;;16.11;;
82787;SDS011;72529;51.786;4.662;2023-12-07T02:33:10;16.78;;;16.76;;
82787;SDS011;72529;51.786;4.662;2023-12-07T02:35:36;16.53;;;16.51;;
82787;SDS011;72529;51.786;4.662;2023-12-07T02:38:05;16.97;;;16.96;;
82787;SDS011;72529;51.786;4.662;2023-12-07T02:40:32;16.78;;;16.78;;
82787;SDS011;72529;51.786;4.662;2023-12-07T02:42:58;17.54;;;17.54;;
82787;SDS011;72529;51.786;4.662;2023-12-07T02:45:24;16.72;;;16.69;;
82787;SDS011;72529;51.786;4.662;2023-12-07T02:47:51;16.65;;;16.64;;
82787;SDS011;72529;51.786;4.662;2023-12-07T02:50:17;17.02;;;16.98;;
82787;SDS011;72529;51.786;4.662;2023-12-07T02:52:43;16.37;;;16.37;;
82787;SDS011;72529;51.786;4.662;2023-12-07T02:55:08;16.32;;;16.31;;
82787;SDS011;72529;51.786;4.662;2023-12-07T02:57:34;17.61;;;17.61;;
82787;SDS011;72529;51.786;4.662;2023-12-07T03:00:00;17.34;;;17.33;;
82787;SDS011;72529;51.786;4.662;2023-12-07T03:02:25;16.71;;;16.66;;
82787;SDS011;72529;51.786;4.662;2023-12-07T03:04:51;18.04;;;17.94;;
82787;SDS011;72529;51.786;4.662;2023-12-07T03:07:17;18.96;;;18.91;;
82787;SDS011;72529;51.786;4.662;2023-12-07T03:09:42;18.72;;;18.67;;
82787;SDS011;72529;51.786;4.662;2023-12-07T03:12:08;20.58;;;20.57;;
82787;SDS011;72529;51.786;4.662;2023-12-07T03:14:33;21.88;;;21.85;;
82787;SDS011;72529;51.786;4.662;2023-12-07T03:16:59;22.45;;;22.40;;
82787;SDS011;72529;51.786;4.662;2023-12-07T03:19:24;23.85;;;23.82;;
82787;SDS011;72529;51.786;4.662;2023-12-07T03:21:50;23.34;;;23.29;;
82787;SDS011;72529;51.786;4.662;2023-12-07T03:24:15;24.29;;;24.25;;
82787;SDS011;72529;51.786;4.662;2023-12-07T03:26:40;26.04;;;25.99;;
82787;SDS011;72529;51.786;4.662;2023-12-07T03:29:06;30.43;;;30.16;;
82787;SDS011;72529;51.786;4.662;2023-12-07T03:31:32;33.62;;;33.32;;
82787;SDS011;72529;51.786;4.662;2023-12-07T03:33:58;34.01;;;33.58;;
82787;SDS011;72529;51.786;4.662;2023-12-07T03:36:24;37.75;;;37.16;;
82787;SDS011;72529;51.786;4.662;2023-12-07T03:38:49;38.39;;;37.89;;
82787;SDS011;72529;51.786;4.662;2023-12-07T03:41:15;38.84;;;38.05;;
82787;SDS011;72529;51.786;4.662;2023-12-07T03:43:41;38.41;;;37.57;;
82787;SDS011;72529;51.786;4.662;2023-12-07T03:46:07;38.40;;;37.57;;
82787;SDS011;72529;51.786;4.662;2023-12-07T03:48:33;37.47;;;36.77;;
82787;SDS011;72529;51.786;4.662;2023-12-07T03:50:59;37.62;;;36.74;;
82787;SDS011;72529;51.786;4.662;2023-12-07T03:53:25;37.09;;;36.32;;
82787;SDS011;72529;51.786;4.662;2023-12-07T03:55:50;37.18;;;36.54;;
82787;SDS011;72529;51.786;4.662;2023-12-07T03:58:16;36.99;;;36.03;;
82787;SDS011;72529;51.786;4.662;2023-12-07T04:00:42;36.18;;;35.31;;
82787;SDS011;72529;51.786;4.662;2023-12-07T04:03:07;37.10;;;36.20;;
82787;SDS011;72529;51.786;4.662;2023-12-07T04:05:33;37.29;;;36.45;;
82787;SDS011;72529;51.786;4.662;2023-12-07T04:07:59;38.89;;;37.78;;
82787;SDS011;72529;51.786;4.662;2023-12-07T04:10:25;39.37;;;38.31;;
82787;SDS011;72529;51.786;4.662;2023-12-07T04:12:50;39.18;;;38.12;;
82787;SDS011;72529;51.786;4.662;2023-12-07T04:15:18;36.80;;;35.88;;
82787;SDS011;72529;51.786;4.662;2023-12-07T04:17:43;37.31;;;36.21;;
82787;SDS011;72529;51.786;4.662;2023-12-07T04:20:09;36.95;;;35.90;;
82787;SDS011;72529;51.786;4.662;2023-12-07T04:22:35;33.87;;;33.09;;
82787;SDS011;72529;51.786;4.662;2023-12-07T04:25:00;32.58;;;31.82;;
82787;SDS011;72529;51.786;4.662;2023-12-07T04:27:26;32.49;;;31.44;;
82787;SDS011;72529;51.786;4.662;2023-12-07T04:29:51;31.72;;;31.14;;
82787;SDS011;72529;51.786;4.662;2023-12-07T04:32:16;29.68;;;29.01;;
82787;SDS011;72529;51.786;4.662;2023-12-07T04:34:42;28.00;;;27.38;;
82787;SDS011;72529;51.786;4.662;2023-12-07T04:37:07;27.01;;;26.48;;
82787;SDS011;72529;51.786;4.662;2023-12-07T04:39:33;26.29;;;25.72;;
82787;SDS011;72529;51.786;4.662;2023-12-07T04:41:58;25.51;;;25.03;;
82787;SDS011;72529;51.786;4.662;2023-12-07T04:44:23;26.04;;;25.58;;
82787;SDS011;72529;51.786;4.662;2023-12-07T04:46:50;24.71;;;24.19;;
82787;SDS011;72529;51.786;4.662;2023-12-07T04:49:16;24.84;;;24.23;;
82787;SDS011;72529;51.786;4.662;2023-12-07T04:51:42;24.21;;;23.54;;
82787;SDS011;72529;51.786;4.662;2023-12-07T04:54:11;23.28;;;22.65;;
82787;SDS011;72529;51.786;4.662;2023-12-07T04:56:40;22.58;;;21.50;;
82787;SDS011;72529;51.786;4.662;2023-12-07T04:59:06;21.42;;;20.76;;
82787;SDS011;72529;51.786;4.662;2023-12-07T05:01:32;21.07;;;20.55;;
82787;SDS011;72529;51.786;4.662;2023-12-07T05:03:57;21.36;;;20.72;;
82787;SDS011;72529;51.786;4.662;2023-12-07T05:06:22;21.42;;;20.66;;
82787;SDS011;72529;51.786;4.662;2023-12-07T05:08:48;21.59;;;20.73;;
82787;SDS011;72529;51.786;4.662;2023-12-07T05:11:13;21.77;;;20.59;;
82787;SDS011;72529;51.786;4.662;2023-12-07T05:13:39;20.96;;;19.96;;
82787;SDS011;72529;51.786;4.662;2023-12-07T05:16:04;20.77;;;19.48;;
82787;SDS011;72529;51.786;4.662;2023-12-07T05:18:30;20.07;;;18.77;;
82787;SDS011;72529;51.786;4.662;2023-12-07T05:20:56;20.72;;;19.24;;
82787;SDS011;72529;51.786;4.662;2023-12-07T05:23:21;20.25;;;19.15;;
82787;SDS011;72529;51.786;4.662;2023-12-07T05:25:46;20.94;;;19.78;;
82787;SDS011;72529;51.786;4.662;2023-12-07T05:28:12;21.21;;;20.07;;
82787;SDS011;72529;51.786;4.662;2023-12-07T05:30:37;20.49;;;19.51;;
82787;SDS011;72529;51.786;4.662;2023-12-07T05:33:03;20.43;;;19.15;;
82787;SDS011;72529;51.786;4.662;2023-12-07T05:35:28;20.38;;;18.91;;
82787;SDS011;72529;51.786;4.662;2023-12-07T05:37:54;20.21;;;18.77;;
82787;SDS011;72529;51.786;4.662;2023-12-07T05:40:19;20.42;;;18.83;;
82787;SDS011;72529;51.786;4.662;2023-12-07T05:42:47;20.14;;;18.73;;
82787;SDS011;72529;51.786;4.662;2023-12-07T05:45:14;20.66;;;19.15;;
82787;SDS011;72529;51.786;4.662;2023-12-07T05:47:40;20.69;;;19.07;;
82787;SDS011;72529;51.786;4.662;2023-12-07T05:50:06;20.88;;;19.35;;
82787;SDS011;72529;51.786;4.662;2023-12-07T05:52:32;21.29;;;19.55;;
82787;SDS011;72529;51.786;4.662;2023-12-07T05:54:57;21.71;;;19.82;;
82787;SDS011;72529;51.786;4.662;2023-12-07T05:57:22;22.20;;;20.36;;
82787;SDS011;72529;51.786;4.662;2023-12-07T05:59:48;24.57;;;22.07;;
82787;SDS011;72529;51.786;4.662;2023-12-07T06:02:13;22.21;;;20.47;;
82787;SDS011;72529;51.786;4.662;2023-12-07T06:04:39;22.54;;;21.07;;
82787;SDS011;72529;51.786;4.662;2023-12-07T06:07:05;22.62;;;21.00;;
82787;SDS011;72529;51.786;4.662;2023-12-07T06:09:31;22.91;;;21.00;;
82787;SDS011;72529;51.786;4.662;2023-12-07T06:11:56;22.74;;;21.08;;
82787;SDS011;72529;51.786;4.662;2023-12-07T06:14:22;20.86;;;19.60;;
82787;SDS011;72529;51.786;4.662;2023-12-07T06:16:48;20.09;;;18.92;;
82787;SDS011;72529;51.786;4.662;2023-12-07T06:19:14;19.39;;;18.51;;
82787;SDS011;72529;51.786;4.662;2023-12-07T06:21:39;19.22;;;18.03;;
82787;SDS011;72529;51.786;4.662;2023-12-07T06:24:05;18.94;;;17.76;;
82787;SDS011;72529;51.786;4.662;2023-12-07T06:26:30;18.74;;;17.75;;
82787;SDS011;72529;51.786;4.662;2023-12-07T06:28:56;18.41;;;17.18;;
82787;SDS011;72529;51.786;4.662;2023-12-07T06:31:21;18.81;;;17.39;;
82787;SDS011;72529;51.786;4.662;2023-12-07T06:33:47;19.51;;;18.08;;
82787;SDS011;72529;51.786;4.662;2023-12-07T06:36:20;19.17;;;17.75;;
82787;SDS011;72529;51.786;4.662;2023-12-07T06:38:46;20.22;;;18.36;;
82787;SDS011;72529;51.786;4.662;2023-12-07T06:41:13;20.25;;;18.82;;
82787;SDS011;72529;51.786;4.662;2023-12-07T06:43:40;21.64;;;20.17;;
82787;SDS011;72529;51.786;4.662;2023-12-07T06:46:05;22.72;;;21.02;;
82787;SDS011;72529;51.786;4.662;2023-12-07T06:48:31;23.98;;;22.07;;
82787;SDS011;72529;51.786;4.662;2023-12-07T06:50:56;25.14;;;23.07;;
82787;SDS011;72529;51.786;4.662;2023-12-07T06:53:22;27.42;;;24.71;;
82787;SDS011;72529;51.786;4.662;2023-12-07T06:55:47;25.33;;;23.10;;
82787;SDS011;72529;51.786;4.662;2023-12-07T06:58:13;26.33;;;24.11;;
82787;SDS011;72529;51.786;4.662;2023-12-07T07:00:38;26.18;;;24.12;;
82787;SDS011;72529;51.786;4.662;2023-12-07T07:03:03;25.65;;;23.55;;
82787;SDS011;72529;51.786;4.662;2023-12-07T07:05:29;27.00;;;24.77;;
82787;SDS011;72529;51.786;4.662;2023-12-07T07:07:54;25.34;;;23.49;;
82787;SDS011;72529;51.786;4.662;2023-12-07T07:10:21;24.55;;;22.40;;
82787;SDS011;72529;51.786;4.662;2023-12-07T07:12:46;23.57;;;21.93;;
82787;SDS011;72529;51.786;4.662;2023-12-07T07:15:12;23.91;;;22.01;;
82787;SDS011;72529;51.786;4.662;2023-12-07T07:17:37;25.09;;;22.93;;
82787;SDS011;72529;51.786;4.662;2023-12-07T07:20:03;24.94;;;22.76;;
82787;SDS011;72529;51.786;4.662;2023-12-07T07:22:29;25.35;;;23.08;;
82787;SDS011;72529;51.786;4.662;2023-12-07T07:24:54;25.90;;;23.38;;
82787;SDS011;72529;51.786;4.662;2023-12-07T07:27:20;25.70;;;23.56;;
82787;SDS011;72529;51.786;4.662;2023-12-07T07:29:45;26.17;;;23.83;;
82787;SDS011;72529;51.786;4.662;2023-12-07T07:32:11;26.30;;;24.00;;
82787;SDS011;72529;51.786;4.662;2023-12-07T07:34:36;26.26;;;23.53;;
82787;SDS011;72529;51.786;4.662;2023-12-07T07:37:02;25.74;;;23.28;;
82787;SDS011;72529;51.786;4.662;2023-12-07T07:39:28;27.03;;;23.86;;
82787;SDS011;72529;51.786;4.662;2023-12-07T07:41:53;27.30;;;24.17;;
82787;SDS011;72529;51.786;4.662;2023-12-07T07:44:19;26.45;;;23.80;;
82787;SDS011;72529;51.786;4.662;2023-12-07T07:46:44;26.33;;;23.80;;
82787;SDS011;72529;51.786;4.662;2023-12-07T07:49:10;27.19;;;24.28;;
82787;SDS011;72529;51.786;4.662;2023-12-07T07:51:35;27.54;;;24.49;;
82787;SDS011;72529;51.786;4.662;2023-12-07T07:54:00;26.78;;;23.88;;
82787;SDS011;72529;51.786;4.662;2023-12-07T07:56:26;27.30;;;24.57;;
82787;SDS011;72529;51.786;4.662;2023-12-07T07:58:51;27.20;;;24.71;;
82787;SDS011;72529;51.786;4.662;2023-12-07T08:01:17;28.28;;;25.58;;
82787;SDS011;72529;51.786;4.662;2023-12-07T08:03:42;30.22;;;26.91;;
82787;SDS011;72529;51.786;4.662;2023-12-07T08:06:08;31.73;;;27.79;;
82787;SDS011;72529;51.786;4.662;2023-12-07T08:08:33;31.94;;;27.95;;
82787;SDS011;72529;51.786;4.662;2023-12-07T08:10:59;30.71;;;27.43;;
82787;SDS011;72529;51.786;4.662;2023-12-07T08:13:26;31.71;;;28.22;;
82787;SDS011;72529;51.786;4.662;2023-12-07T08:15:52;33.68;;;29.42;;
82787;SDS011;72529;51.786;4.662;2023-12-07T08:18:18;34.42;;;29.62;;
82787;SDS011;72529;51.786;4.662;2023-12-07T08:20:44;33.18;;;29.03;;
82787;SDS011;72529;51.786;4.662;2023-12-07T08:23:09;32.96;;;29.41;;
82787;SDS011;72529;51.786;4.662;2023-12-07T08:25:36;36.99;;;32.28;;
82787;SDS011;72529;51.786;4.662;2023-12-07T08:28:03;37.58;;;32.88;;
82787;SDS011;72529;51.786;4.662;2023-12-07T08:30:28;39.50;;;34.23;;
82787;SDS011;72529;51.786;4.662;2023-12-07T08:32:54;39.25;;;34.12;;
82787;SDS011;72529;51.786;4.662;2023-12-07T08:35:19;42.56;;;36.17;;
82787;SDS011;72529;51.786;4.662;2023-12-07T08:37:45;42.02;;;35.76;;
82787;SDS011;72529;51.786;4.662;2023-12-07T08:40:10;42.35;;;36.19;;
82787;SDS011;72529;51.786;4.662;2023-12-07T08:42:36;42.97;;;36.95;;
82787;SDS011;72529;51.786;4.662;2023-12-07T08:45:02;43.11;;;37.16;;
82787;SDS011;72529;51.786;4.662;2023-12-07T08:47:28;40.05;;;35.22;;
82787;SDS011;72529;51.786;4.662;2023-12-07T08:49:55;39.39;;;34.62;;
82787;SDS011;72529;51.786;4.662;2023-12-07T08:52:20;36.91;;;32.86;;
82787;SDS011;72529;51.786;4.662;2023-12-07T08:54:46;36.34;;;32.01;;
82787;SDS011;72529;51.786;4.662;2023-12-07T08:57:12;33.14;;;29.81;;
82787;SDS011;72529;51.786;4.662;2023-12-07T08:59:37;32.08;;;29.05;;
82787;SDS011;72529;51.786;4.662;2023-12-07T09:02:02;31.10;;;28.74;;
82787;SDS011;72529;51.786;4.662;2023-12-07T09:04:28;32.24;;;29.18;;
82787;SDS011;72529;51.786;4.662;2023-12-07T09:06:54;30.97;;;28.42;;
82787;SDS011;72529;51.786;4.662;2023-12-07T09:09:19;30.17;;;28.37;;
82787;SDS011;72529;51.786;4.662;2023-12-07T09:11:45;31.49;;;28.97;;
82787;SDS011;72529;51.786;4.662;2023-12-07T09:14:10;31.01;;;29.05;;
82787;SDS011;72529;51.786;4.662;2023-12-07T09:16:42;31.88;;;29.61;;
82787;SDS011;72529;51.786;4.662;2023-12-07T09:19:09;30.55;;;28.36;;
82787;SDS011;72529;51.786;4.662;2023-12-07T09:21:35;31.23;;;28.83;;
82787;SDS011;72529;51.786;4.662;2023-12-07T09:24:01;30.67;;;28.61;;
82787;SDS011;72529;51.786;4.662;2023-12-07T09:26:26;30.47;;;28.53;;
82787;SDS011;72529;51.786;4.662;2023-12-07T09:28:52;30.52;;;28.80;;
82787;SDS011;72529;51.786;4.662;2023-12-07T09:31:18;30.13;;;27.94;;
82787;SDS011;72529;51.786;4.662;2023-12-07T09:33:43;31.39;;;29.28;;
82787;SDS011;72529;51.786;4.662;2023-12-07T09:36:09;31.71;;;29.58;;
82787;SDS011;72529;51.786;4.662;2023-12-07T09:38:36;31.52;;;29.35;;
82787;SDS011;72529;51.786;4.662;2023-12-07T09:41:02;31.56;;;29.78;;
82787;SDS011;72529;51.786;4.662;2023-12-07T09:43:28;30.44;;;28.39;;
82787;SDS011;72529;51.786;4.662;2023-12-07T09:45:54;31.60;;;29.66;;
82787;SDS011;72529;51.786;4.662;2023-12-07T09:48:21;31.22;;;29.61;;
82787;SDS011;72529;51.786;4.662;2023-12-07T09:50:46;30.64;;;29.01;;
82787;SDS011;72529;51.786;4.662;2023-12-07T09:53:12;31.86;;;30.06;;
82787;SDS011;72529;51.786;4.662;2023-12-07T09:55:38;31.31;;;29.61;;
82787;SDS011;72529;51.786;4.662;2023-12-07T09:58:03;30.79;;;29.27;;
82787;SDS011;72529;51.786;4.662;2023-12-07T10:00:29;30.01;;;28.73;;
82787;SDS011;72529;51.786;4.662;2023-12-07T10:02:55;29.86;;;28.47;;
82787;SDS011;72529;51.786;4.662;2023-12-07T10:05:20;29.46;;;28.27;;
82787;SDS011;72529;51.786;4.662;2023-12-07T10:07:46;28.59;;;27.42;;
82787;SDS011;72529;51.786;4.662;2023-12-07T10:10:13;26.65;;;25.91;;
82787;SDS011;72529;51.786;4.662;2023-12-07T10:12:47;26.78;;;25.96;;
82787;SDS011;72529;51.786;4.662;2023-12-07T10:15:17;26.91;;;25.82;;
82787;SDS011;72529;51.786;4.662;2023-12-07T10:17:45;26.30;;;25.72;;
82787;SDS011;72529;51.786;4.662;2023-12-07T10:20:18;25.69;;;25.19;;
82787;SDS011;72529;51.786;4.662;2023-12-07T10:23:07;26.01;;;25.27;;
82787;SDS011;72529;51.786;4.662;2023-12-07T10:25:42;26.04;;;25.39;;
82787;SDS011;72529;51.786;4.662;2023-12-07T10:28:08;24.96;;;24.18;;
82787;SDS011;72529;51.786;4.662;2023-12-07T10:30:42;24.80;;;24.06;;
82787;SDS011;72529;51.786;4.662;2023-12-07T10:33:09;24.31;;;23.58;;
82787;SDS011;72529;51.786;4.662;2023-12-07T10:35:38;23.73;;;23.11;;
82787;SDS011;72529;51.786;4.662;2023-12-07T10:38:06;24.73;;;24.20;;
82787;SDS011;72529;51.786;4.662;2023-12-07T10:40:31;24.73;;;23.96;;
82787;SDS011;72529;51.786;4.662;2023-12-07T10:42:57;24.76;;;23.99;;
82787;SDS011;72529;51.786;4.662;2023-12-07T10:45:26;24.51;;;23.77;;
82787;SDS011;72529;51.786;4.662;2023-12-07T10:50:27;24.52;;;23.94;;
82787;SDS011;72529;51.786;4.662;2023-12-07T10:52:57;24.60;;;24.03;;
82787;SDS011;72529;51.786;4.662;2023-12-07T10:55:29;22.97;;;22.51;;
82787;SDS011;72529;51.786;4.662;2023-12-07T10:58:00;23.01;;;22.35;;
82787;SDS011;72529;51.786;4.662;2023-12-07T11:00:27;23.15;;;22.78;;
82787;SDS011;72529;51.786;4.662;2023-12-07T11:02:54;23.29;;;22.76;;
82787;SDS011;72529;51.786;4.662;2023-12-07T11:05:20;23.07;;;22.51;;
82787;SDS011;72529;51.786;4.662;2023-12-07T11:13:24;24.66;;;23.94;;
82787;SDS011;72529;51.786;4.662;2023-12-07T11:15:55;25.22;;;24.61;;
82787;SDS011;72529;51.786;4.662;2023-12-07T11:18:23;25.32;;;24.77;;
82787;SDS011;72529;51.786;4.662;2023-12-07T11:20:50;26.08;;;25.50;;
82787;SDS011;72529;51.786;4.662;2023-12-07T11:23:17;26.72;;;26.01;;
82787;SDS011;72529;51.786;4.662;2023-12-07T11:25:46;30.70;;;29.82;;
82787;SDS011;72529;51.786;4.662;2023-12-07T11:28:13;30.67;;;29.88;;
82787;SDS011;72529;51.786;4.662;2023-12-07T11:30:43;31.66;;;30.59;;
82787;SDS011;72529;51.786;4.662;2023-12-07T11:33:10;29.03;;;28.04;;
82787;SDS011;72529;51.786;4.662;2023-12-07T11:38:27;28.67;;;27.87;;
82787;SDS011;72529;51.786;4.662;2023-12-07T11:40:53;28.68;;;27.88;;
82787;SDS011;72529;51.786;4.662;2023-12-07T11:45:58;29.75;;;29.19;;
82787;SDS011;72529;51.786;4.662;2023-12-07T11:48:24;30.62;;;29.76;;
82787;SDS011;72529;51.786;4.662;2023-12-07T11:50:53;30.42;;;29.54;;
82787;SDS011;72529;51.786;4.662;2023-12-07T11:53:32;30.10;;;29.35;;
82787;SDS011;72529;51.786;4.662;2023-12-07T11:56:00;30.95;;;30.13;;
82787;SDS011;72529;51.786;4.662;2023-12-07T11:58:28;31.07;;;30.35;;
82787;SDS011;72529;51.786;4.662;2023-12-07T12:00:55;30.66;;;29.96;;
82787;SDS011;72529;51.786;4.662;2023-12-07T12:03:25;29.11;;;28.66;;
82787;SDS011;72529;51.786;4.662;2023-12-07T12:05:52;29.67;;;28.69;;
82787;SDS011;72529;51.786;4.662;2023-12-07T12:08:18;28.71;;;27.93;;
82787;SDS011;72529;51.786;4.662;2023-12-07T12:10:44;28.06;;;27.39;;
82787;SDS011;72529;51.786;4.662;2023-12-07T12:13:11;28.36;;;27.54;;
82787;SDS011;72529;51.786;4.662;2023-12-07T12:15:37;28.06;;;27.31;;
82787;SDS011;72529;51.786;4.662;2023-12-07T12:18:06;27.74;;;26.85;;
82787;SDS011;72529;51.786;4.662;2023-12-07T12:20:33;27.95;;;27.29;;
82787;SDS011;72529;51.786;4.662;2023-12-07T12:22:59;28.30;;;27.51;;
82787;SDS011;72529;51.786;4.662;2023-12-07T12:25:26;28.40;;;27.66;;
82787;SDS011;72529;51.786;4.662;2023-12-07T12:27:56;28.06;;;27.37;;
82787;SDS011;72529;51.786;4.662;2023-12-07T12:30:26;28.26;;;27.52;;
82787;SDS011;72529;51.786;4.662;2023-12-07T12:32:53;29.01;;;28.11;;
82787;SDS011;72529;51.786;4.662;2023-12-07T12:35:19;28.17;;;27.44;;
82787;SDS011;72529;51.786;4.662;2023-12-07T12:37:45;28.10;;;27.59;;
82787;SDS011;72529;51.786;4.662;2023-12-07T12:40:12;28.98;;;28.14;;
82787;SDS011;72529;51.786;4.662;2023-12-07T12:42:44;28.54;;;27.68;;
82787;SDS011;72529;51.786;4.662;2023-12-07T12:45:12;27.75;;;26.91;;
82787;SDS011;72529;51.786;4.662;2023-12-07T12:47:39;27.75;;;27.01;;
82787;SDS011;72529;51.786;4.662;2023-12-07T12:50:06;27.05;;;26.51;;
82787;SDS011;72529;51.786;4.662;2023-12-07T12:52:32;28.15;;;27.51;;
82787;SDS011;72529;51.786;4.662;2023-12-07T12:54:59;27.58;;;27.05;;
82787;SDS011;72529;51.786;4.662;2023-12-07T12:57:24;29.34;;;28.49;;
82787;SDS011;72529;51.786;4.662;2023-12-07T12:59:50;28.10;;;27.36;;
82787;SDS011;72529;51.786;4.662;2023-12-07T13:02:16;28.31;;;27.51;;
82787;SDS011;72529;51.786;4.662;2023-12-07T13:04:43;27.05;;;26.47;;
82787;SDS011;72529;51.786;4.662;2023-12-07T13:07:10;26.27;;;25.57;;
82787;SDS011;72529;51.786;4.662;2023-12-07T13:09:37;24.68;;;24.11;;
82787;SDS011;72529;51.786;4.662;2023-12-07T13:12:03;24.41;;;23.89;;
82787;SDS011;72529;51.786;4.662;2023-12-07T13:14:29;23.46;;;22.97;;
82787;SDS011;72529;51.786;4.662;2023-12-07T13:16:55;23.68;;;23.04;;
82787;SDS011;72529;51.786;4.662;2023-12-07T13:19:20;22.74;;;22.31;;
82787;SDS011;72529;51.786;4.662;2023-12-07T13:21:46;23.23;;;22.85;;
82787;SDS011;72529;51.786;4.662;2023-12-07T13:24:11;23.41;;;22.91;;
82787;SDS011;72529;51.786;4.662;2023-12-07T13:26:38;23.02;;;22.55;;
82787;SDS011;72529;51.786;4.662;2023-12-07T13:29:04;22.91;;;22.39;;
82787;SDS011;72529;51.786;4.662;2023-12-07T13:31:30;23.00;;;22.53;;
82787;SDS011;72529;51.786;4.662;2023-12-07T13:33:55;22.87;;;22.39;;
82787;SDS011;72529;51.786;4.662;2023-12-07T13:36:21;22.71;;;22.20;;
82787;SDS011;72529;51.786;4.662;2023-12-07T13:38:50;23.17;;;22.71;;
82787;SDS011;72529;51.786;4.662;2023-12-07T13:41:16;22.07;;;21.64;;
82787;SDS011;72529;51.786;4.662;2023-12-07T13:43:41;22.47;;;21.99;;
82787;SDS011;72529;51.786;4.662;2023-12-07T13:46:07;22.43;;;21.85;;
82787;SDS011;72529;51.786;4.662;2023-12-07T13:48:33;21.90;;;21.43;;
82787;SDS011;72529;51.786;4.662;2023-12-07T13:50:58;21.88;;;21.26;;
82787;SDS011;72529;51.786;4.662;2023-12-07T13:53:24;21.76;;;21.33;;
82787;SDS011;72529;51.786;4.662;2023-12-07T13:55:49;20.40;;;19.98;;
82787;SDS011;72529;51.786;4.662;2023-12-07T13:58:16;20.34;;;19.80;;
82787;SDS011;72529;51.786;4.662;2023-12-07T14:00:42;19.31;;;18.95;;
82787;SDS011;72529;51.786;4.662;2023-12-07T14:03:10;19.23;;;18.83;;
82787;SDS011;72529;51.786;4.662;2023-12-07T14:05:36;19.42;;;19.19;;
82787;SDS011;72529;51.786;4.662;2023-12-07T14:08:03;19.59;;;19.09;;
82787;SDS011;72529;51.786;4.662;2023-12-07T14:10:28;19.67;;;19.12;;
82787;SDS011;72529;51.786;4.662;2023-12-07T14:12:54;18.74;;;18.43;;
82787;SDS011;72529;51.786;4.662;2023-12-07T14:15:19;19.49;;;19.17;;
82787;SDS011;72529;51.786;4.662;2023-12-07T14:17:44;20.61;;;20.29;;
82787;SDS011;72529;51.786;4.662;2023-12-07T14:20:10;20.96;;;20.50;;
82787;SDS011;72529;51.786;4.662;2023-12-07T14:22:36;20.71;;;20.41;;
82787;SDS011;72529;51.786;4.662;2023-12-07T14:25:03;21.39;;;20.99;;
82787;SDS011;72529;51.786;4.662;2023-12-07T14:27:29;21.53;;;21.19;;
82787;SDS011;72529;51.786;4.662;2023-12-07T14:29:55;21.47;;;21.12;;